Time,TemperatureF,DewpointF,PressureIn,WindDirection,WindDirectionDegrees,WindSpeedMPH,WindSpeedGustMPH,Humidity,HourlyPrecipIn,Conditions,Clouds,dailyrainin,SoftwareType,DateUTC
2013-03-04 00:00:00,37.4,32.8,24.06,North,0,0.0,-999.0,83,0.00,,,0.00,,2013-03-04 08:00:00,
2013-03-04 01:00:00,37.8,32.8,24.08,North,0,0.0,-999.0,82,0.00,,,0.00,,2013-03-04 09:00:00,
2013-03-04 02:00:00,37.8,32.5,24.08,North,0,0.0,-999.0,81,0.00,,,0.00,,2013-03-04 10:00:00,
2013-03-04 03:00:00,37.4,32.4,24.08,North,0,0.0,-999.0,82,0.00,,,0.00,,2013-03-04 11:00:00,
2013-03-04 04:00:00,37.6,32.0,24.08,North,0,0.0,-999.0,80,0.00,,,0.00,,2013-03-04 12:00:00,
2013-03-04 05:00:00,37.1,31.1,24.09,North,0,0.0,-999.0,79,0.00,,,0.00,,2013-03-04 13:00:00,
2013-03-04 06:00:00,36.2,30.6,24.10,North,0,0.0,-999.0,80,0.00,,,0.00,,2013-03-04 14:00:00,
2013-03-04 07:07:00,36.2,30.6,24.10,North,0,0.0,-999.0,80,0.00,,,0.00,,2013-03-04 15:07:00,
2013-03-04 08:00:00,38.2,30.2,24.10,North,0,0.0,-999.0,73,0.00,,,0.00,,2013-03-04 16:00:00,
2013-03-04 09:07:00,41.2,32.6,24.10,North,0,0.0,-999.0,71,0.00,,,0.00,,2013-03-04 17:07:00,
2013-03-04 10:00:00,45.0,34.3,24.12,North,0,0.0,-999.0,66,0.00,,,0.00,,2013-03-04 18:00:00,
2013-03-04 11:06:00,46.6,36.3,24.12,North,0,0.0,-999.0,67,0.00,,,0.00,,2013-03-04 19:06:00,
2013-03-04 12:00:00,52.0,37.6,24.12,North,0,0.0,-999.0,58,0.00,,,0.00,,2013-03-04 20:00:00,
2013-03-04 13:06:00,55.1,35.6,24.12,North,0,0.0,-999.0,48,0.00,,,0.00,,2013-03-04 21:06:00,
2013-03-04 14:00:00,51.7,39.9,24.11,North,0,0.0,-999.0,64,0.00,,,0.00,,2013-03-04 22:00:00,
2013-03-04 15:06:00,49.3,40.7,24.11,North,0,0.0,-999.0,72,0.00,,,0.00,,2013-03-04 23:06:00,
2013-03-04 16:00:00,51.3,41.1,24.11,North,0,0.0,-999.0,68,0.00,,,0.00,,2013-03-05 00:00:00,
2013-03-04 17:06:00,47.3,40.2,24.11,North,0,0.0,-999.0,76,0.00,,,0.00,,2013-03-05 01:06:00,
2013-03-04 18:00:00,45.0,39.2,24.13,North,0,0.0,-999.0,80,0.00,,,0.00,,2013-03-05 02:00:00,
2013-03-04 19:00:00,41.6,35.5,24.13,North,0,0.0,-999.0,79,0.00,,,0.00,,2013-03-05 03:00:00,
2013-03-04 20:00:00,40.0,33.9,24.13,North,0,0.0,-999.0,79,0.00,,,0.00,,2013-03-05 04:00:00,
2013-03-04 21:00:00,40.1,34.1,24.14,North,0,0.0,-999.0,79,0.00,,,0.00,,2013-03-05 05:00:00,
2013-03-04 22:00:00,40.0,33.9,24.15,North,0,0.0,-999.0,79,0.00,,,0.00,,2013-03-05 06:00:00,
2013-03-04 23:00:00,39.4,33.9,24.14,North,0,0.0,-999.0,80,0.00,,,0.00,,2013-03-05 07:00:00,